sensor_id;sensor_type;location;lat;lon;timestamp;pressure;altitude;pressure_sealevel;temperature;humidity
13011;BME280;6786;57.632;11.962;2023-07-16T00:01:53;99635.13;;;21.07;73.93
13011;BME280;6786;57.632;11.962;2023-07-16T00:04:21;99629.75;;;21.07;73.50
13011;BME280;6786;57.632;11.962;2023-07-16T00:06:50;99621.88;;;21.06;73.68
13011;BME280;6786;57.632;11.962;2023-07-16T00:09:18;99627.25;;;21.06;73.74
13011;BME280;6786;57.632;11.962;2023-07-16T00:11:46;99574.09;;;20.77;73.65
13011;BME280;6786;57.632;11.962;2023-07-16T00:14:15;99628.09;;;21.06;73.66
13011;BME280;6786;57.632;11.962;2023-07-16T00:16:43;99644.22;;;21.06;73.82
13011;BME280;6786;57.632;11.962;2023-07-16T00:19:12;99606.63;;;20.90;73.80
13011;BME280;6786;57.632;11.962;2023-07-16T00:21:40;99629.47;;;20.94;74.01
13011;BME280;6786;57.632;11.962;2023-07-16T00:24:08;99647.53;;;21.08;73.70
13011;BME280;6786;57.632;11.962;2023-07-16T00:26:36;99649.22;;;21.09;73.98
13011;BME280;6786;57.632;11.962;2023-07-16T00:29:04;99581.19;;;20.70;73.80
13011;BME280;6786;57.632;11.962;2023-07-16T00:31:34;99649.22;;;21.09;74.11
13011;BME280;6786;57.632;11.962;2023-07-16T00:34:02;99635.13;;;21.07;73.87
13011;BME280;6786;57.632;11.962;2023-07-16T00:36:30;99642.16;;;21.08;73.90
13011;BME280;6786;57.632;11.962;2023-07-16T00:38:58;99645.03;;;21.07;73.95
13011;BME280;6786;57.632;11.962;2023-07-16T00:41:26;99642.16;;;21.08;73.97
13011;BME280;6786;57.632;11.962;2023-07-16T00:43:54;99654.59;;;21.09;74.23
13011;BME280;6786;57.632;11.962;2023-07-16T00:46:22;99645.53;;;21.10;74.06
13011;BME280;6786;57.632;11.962;2023-07-16T00:48:52;99640.16;;;21.10;74.06
13011;BME280;6786;57.632;11.962;2023-07-16T00:51:21;99627.38;;;21.12;73.77
13011;BME280;6786;57.632;11.962;2023-07-16T00:53:50;99631.06;;;21.11;73.74
13011;BME280;6786;57.632;11.962;2023-07-16T00:56:18;99629.41;;;21.10;74.16
13011;BME280;6786;57.632;11.962;2023-07-16T00:58:47;99635.13;;;21.07;73.91
13011;BME280;6786;57.632;11.962;2023-07-16T01:01:15;99646.53;;;21.09;73.78
13011;BME280;6786;57.632;11.962;2023-07-16T01:03:43;99643.84;;;21.09;73.88
13011;BME280;6786;57.632;11.962;2023-07-16T01:06:18;99640.31;;;21.09;74.36
13011;BME280;6786;57.632;11.962;2023-07-16T01:08:55;99642.84;;;21.02;74.38
13011;BME280;6786;57.632;11.962;2023-07-16T01:11:26;99653.94;;;21.07;74.18
13011;BME280;6786;57.632;11.962;2023-07-16T01:13:55;99650.41;;;21.07;74.11
13011;BME280;6786;57.632;11.962;2023-07-16T01:16:25;99657.47;;;21.08;74.16
13011;BME280;6786;57.632;11.962;2023-07-16T01:18:53;99610.38;;;20.81;74.01
13011;BME280;6786;57.632;11.962;2023-07-16T01:21:23;99654.59;;;21.09;74.14
13011;BME280;6786;57.632;11.962;2023-07-16T01:24:09;99614.38;;;20.85;74.40
13011;BME280;6786;57.632;11.962;2023-07-16T01:26:54;99647.19;;;21.11;74.37
13011;BME280;6786;57.632;11.962;2023-07-16T01:29:31;99642.00;;;21.10;74.32
13011;BME280;6786;57.632;11.962;2023-07-16T01:32:01;99626.28;;;20.99;74.21
13011;BME280;6786;57.632;11.962;2023-07-16T01:34:32;99646.22;;;21.04;74.11
13011;BME280;6786;57.632;11.962;2023-07-16T01:37:02;99675.25;;;21.09;74.54
13011;BME280;6786;57.632;11.962;2023-07-16T01:39:31;99631.47;;;20.92;74.26
13011;BME280;6786;57.632;11.962;2023-07-16T01:42:00;99643.84;;;21.09;74.33
13011;BME280;6786;57.632;11.962;2023-07-16T01:44:30;99632.25;;;21.09;74.34
13011;BME280;6786;57.632;11.962;2023-07-16T01:47:08;99659.97;;;21.09;74.40
13011;BME280;6786;57.632;11.962;2023-07-16T01:49:37;99681.47;;;21.09;74.21
13011;BME280;6786;57.632;11.962;2023-07-16T01:52:06;99656.84;;;20.98;74.33
13011;BME280;6786;57.632;11.962;2023-07-16T01:54:35;99669.03;;;21.08;74.40
13011;BME280;6786;57.632;11.962;2023-07-16T01:57:04;99657.28;;;21.09;74.38
13011;BME280;6786;57.632;11.962;2023-07-16T01:59:34;99626.88;;;21.09;74.21
13011;BME280;6786;57.632;11.962;2023-07-16T02:02:02;99617.00;;;21.09;74.54
13011;BME280;6786;57.632;11.962;2023-07-16T02:04:30;99615.28;;;21.08;74.16
13011;BME280;6786;57.632;11.962;2023-07-16T02:07:00;99621.53;;;21.09;74.33
13011;BME280;6786;57.632;11.962;2023-07-16T02:09:29;99617.34;;;21.06;74.40
13011;BME280;6786;57.632;11.962;2023-07-16T02:11:57;99638.50;;;21.09;74.24
13011;BME280;6786;57.632;11.962;2023-07-16T02:14:25;99650.06;;;21.10;74.47
13011;BME280;6786;57.632;11.962;2023-07-16T02:16:55;99652.72;;;21.10;74.64
13011;BME280;6786;57.632;11.962;2023-07-16T02:19:23;99651.91;;;21.09;74.42
13011;BME280;6786;57.632;11.962;2023-07-16T02:21:52;99658.97;;;21.10;74.32
13011;BME280;6786;57.632;11.962;2023-07-16T02:24:21;99677.75;;;21.10;74.15
13011;BME280;6786;57.632;11.962;2023-07-16T02:26:49;99677.75;;;21.10;74.37
13011;BME280;6786;57.632;11.962;2023-07-16T02:29:17;99674.09;;;21.03;74.28
13011;BME280;6786;57.632;11.962;2023-07-16T02:31:45;99649.97;;;20.87;74.22
13011;BME280;6786;57.632;11.962;2023-07-16T02:34:16;99692.22;;;21.09;74.36
13011;BME280;6786;57.632;11.962;2023-07-16T02:36:44;99705.81;;;21.08;74.68
13011;BME280;6786;57.632;11.962;2023-07-16T02:39:13;99708.50;;;21.08;74.76
13011;BME280;6786;57.632;11.962;2023-07-16T02:41:41;99724.81;;;21.06;74.64
13011;BME280;6786;57.632;11.962;2023-07-16T02:44:09;99670.94;;;20.84;74.66
13011;BME280;6786;57.632;11.962;2023-07-16T02:46:37;99712.00;;;21.08;74.49
13011;BME280;6786;57.632;11.962;2023-07-16T02:49:05;99716.75;;;21.06;74.69
13011;BME280;6786;57.632;11.962;2023-07-16T02:51:35;99685.88;;;20.94;74.30
13011;BME280;6786;57.632;11.962;2023-07-16T02:54:03;99675.09;;;21.02;74.45
13011;BME280;6786;57.632;11.962;2023-07-16T02:56:31;99671.06;;;21.06;74.79
13011;BME280;6786;57.632;11.962;2023-07-16T02:59:00;99619.41;;;20.88;74.75
13011;BME280;6786;57.632;11.962;2023-07-16T03:01:28;99654.09;;;21.06;74.47
13011;BME280;6786;57.632;11.962;2023-07-16T03:03:56;99623.78;;;20.81;74.55
13011;BME280;6786;57.632;11.962;2023-07-16T03:06:24;99672.72;;;21.07;74.47
13011;BME280;6786;57.632;11.962;2023-07-16T03:08:54;99669.03;;;21.08;74.39
13011;BME280;6786;57.632;11.962;2023-07-16T03:11:22;99672.72;;;21.07;74.50
13011;BME280;6786;57.632;11.962;2023-07-16T03:13:50;99688.84;;;21.07;74.47
13011;BME280;6786;57.632;11.962;2023-07-16T03:16:18;99673.44;;;21.01;74.52
13011;BME280;6786;57.632;11.962;2023-07-16T03:18:46;99685.16;;;21.08;74.69
13011;BME280;6786;57.632;11.962;2023-07-16T03:21:14;99686.00;;;21.09;74.55
13011;BME280;6786;57.632;11.962;2023-07-16T03:23:42;99671.88;;;21.07;74.58
13011;BME280;6786;57.632;11.962;2023-07-16T03:26:12;99656.44;;;21.09;74.47
13011;BME280;6786;57.632;11.962;2023-07-16T03:28:40;99650.22;;;21.08;74.62
13011;BME280;6786;57.632;11.962;2023-07-16T03:31:09;99649.56;;;21.06;74.36
13011;BME280;6786;57.632;11.962;2023-07-16T03:33:37;99666.34;;;21.08;74.65
13011;BME280;6786;57.632;11.962;2023-07-16T03:36:05;99674.41;;;21.08;74.47
13011;BME280;6786;57.632;11.962;2023-07-16T03:38:34;99673.59;;;21.08;74.71
13011;BME280;6786;57.632;11.962;2023-07-16T03:41:02;99678.97;;;21.08;74.66
13011;BME280;6786;57.632;11.962;2023-07-16T03:43:31;99691.53;;;21.07;74.50
13011;BME280;6786;57.632;11.962;2023-07-16T03:46:00;99694.22;;;21.07;74.40
13011;BME280;6786;57.632;11.962;2023-07-16T03:48:28;99694.56;;;21.04;74.54
13011;BME280;6786;57.632;11.962;2023-07-16T03:50:56;99700.28;;;21.09;74.52
13011;BME280;6786;57.632;11.962;2023-07-16T03:53:24;99678.09;;;21.07;74.72
13011;BME280;6786;57.632;11.962;2023-07-16T03:55:52;99699.59;;;21.07;74.61
13011;BME280;6786;57.632;11.962;2023-07-16T03:58:20;99676.47;;;20.98;74.68
13011;BME280;6786;57.632;11.962;2023-07-16T04:00:51;99690.53;;;21.08;74.73
13011;BME280;6786;57.632;11.962;2023-07-16T04:03:20;99681.81;;;21.06;74.69
13011;BME280;6786;57.632;11.962;2023-07-16T04:05:48;99630.81;;;20.82;74.39
13011;BME280;6786;57.632;11.962;2023-07-16T04:08:16;99654.94;;;21.06;74.68
13011;BME280;6786;57.632;11.962;2023-07-16T04:10:44;99671.88;;;21.07;74.43
13011;BME280;6786;57.632;11.962;2023-07-16T04:13:12;99688.84;;;21.07;74.75
13011;BME280;6786;57.632;11.962;2023-07-16T04:15:40;99664.69;;;21.07;74.70
13011;BME280;6786;57.632;11.962;2023-07-16T04:18:10;99651.25;;;21.07;74.52
13011;BME280;6786;57.632;11.962;2023-07-16T04:20:38;99682.63;;;21.07;74.90
13011;BME280;6786;57.632;11.962;2023-07-16T04:23:06;99715.72;;;21.07;74.58
13011;BME280;6786;57.632;11.962;2023-07-16T04:25:34;99757.84;;;21.07;74.57
13011;BME280;6786;57.632;11.962;2023-07-16T04:28:02;99781.22;;;21.06;74.77
13011;BME280;6786;57.632;11.962;2023-07-16T04:30:30;99752.00;;;21.03;74.47
13011;BME280;6786;57.632;11.962;2023-07-16T04:32:59;99743.59;;;21.06;74.50
13011;BME280;6786;57.632;11.962;2023-07-16T04:35:28;99755.84;;;21.09;74.79
13011;BME280;6786;57.632;11.962;2023-07-16T04:37:56;99749.16;;;21.05;74.91
13011;BME280;6786;57.632;11.962;2023-07-16T04:40:24;99747.63;;;21.10;74.58
13011;BME280;6786;57.632;11.962;2023-07-16T04:42:52;99753.34;;;21.07;74.76
13011;BME280;6786;57.632;11.962;2023-07-16T04:45:20;99732.69;;;21.08;74.59
13011;BME280;6786;57.632;11.962;2023-07-16T04:47:49;99745.97;;;21.09;74.89
13011;BME280;6786;57.632;11.962;2023-07-16T04:50:17;99729.84;;;21.09;74.65
13011;BME280;6786;57.632;11.962;2023-07-16T04:52:46;99714.69;;;21.08;74.88
13011;BME280;6786;57.632;11.962;2023-07-16T04:55:14;99698.97;;;20.97;74.65
13011;BME280;6786;57.632;11.962;2023-07-16T04:57:42;99730.81;;;21.08;74.62
13011;BME280;6786;57.632;11.962;2023-07-16T05:00:11;99723.44;;;21.02;74.90
13011;BME280;6786;57.632;11.962;2023-07-16T05:02:39;99743.44;;;21.08;74.86
13011;BME280;6786;57.632;11.962;2023-07-16T05:05:08;99753.34;;;21.07;74.81
13011;BME280;6786;57.632;11.962;2023-07-16T05:07:36;99763.06;;;21.08;74.53
13011;BME280;6786;57.632;11.962;2023-07-16T05:10:07;99754.19;;;21.08;74.93
13011;BME280;6786;57.632;11.962;2023-07-16T05:12:35;99749.63;;;21.08;74.82
13011;BME280;6786;57.632;11.962;2023-07-16T05:15:04;99757.03;;;21.06;74.79
13011;BME280;6786;57.632;11.962;2023-07-16T05:17:32;99772.81;;;21.09;74.30
13011;BME280;6786;57.632;11.962;2023-07-16T05:20:00;99763.75;;;21.10;74.57
13011;BME280;6786;57.632;11.962;2023-07-16T05:22:29;99769.13;;;21.10;74.55
13011;BME280;6786;57.632;11.962;2023-07-16T05:24:57;99769.13;;;21.10;74.47
13011;BME280;6786;57.632;11.962;2023-07-16T05:27:27;99769.13;;;21.10;74.37
13011;BME280;6786;57.632;11.962;2023-07-16T05:29:55;99683.72;;;20.66;74.35
13011;BME280;6786;57.632;11.962;2023-07-16T05:32:23;99707.56;;;20.77;74.34
13011;BME280;6786;57.632;11.962;2023-07-16T05:34:51;99757.34;;;21.11;74.37
13011;BME280;6786;57.632;11.962;2023-07-16T05:37:19;99753.50;;;21.14;74.46
13011;BME280;6786;57.632;11.962;2023-07-16T05:39:48;99760.53;;;21.15;74.60
13011;BME280;6786;57.632;11.962;2023-07-16T05:42:16;99755.34;;;21.13;74.42
13011;BME280;6786;57.632;11.962;2023-07-16T05:44:47;99770.09;;;21.17;74.64
13011;BME280;6786;57.632;11.962;2023-07-16T05:47:15;99748.31;;;21.04;74.27
13011;BME280;6786;57.632;11.962;2023-07-16T05:49:43;99763.06;;;21.16;74.43
13011;BME280;6786;57.632;11.962;2023-07-16T05:52:11;99754.81;;;21.18;74.15
13011;BME280;6786;57.632;11.962;2023-07-16T05:54:39;99748.59;;;21.17;74.37
13011;BME280;6786;57.632;11.962;2023-07-16T05:57:07;99748.59;;;21.17;74.47
13011;BME280;6786;57.632;11.962;2023-07-16T05:59:35;99763.06;;;21.16;74.45
13011;BME280;6786;57.632;11.962;2023-07-16T06:02:06;99757.69;;;21.16;74.57
13011;BME280;6786;57.632;11.962;2023-07-16T06:04:34;99771.78;;;21.18;74.52
13011;BME280;6786;57.632;11.962;2023-07-16T06:07:02;99762.88;;;21.18;74.18
13011;BME280;6786;57.632;11.962;2023-07-16T06:09:30;99756.00;;;21.15;74.28
13011;BME280;6786;57.632;11.962;2023-07-16T06:11:58;99735.69;;;21.13;74.80
13011;BME280;6786;57.632;11.962;2023-07-16T06:14:26;99743.56;;;21.14;74.47
13011;BME280;6786;57.632;11.962;2023-07-16T06:16:54;99768.44;;;21.16;74.81
13011;BME280;6786;57.632;11.962;2023-07-16T06:19:24;99752.31;;;21.16;74.50
13011;BME280;6786;57.632;11.962;2023-07-16T06:21:52;99743.94;;;21.03;74.80
13011;BME280;6786;57.632;11.962;2023-07-16T06:24:20;99754.31;;;21.14;74.67
13011;BME280;6786;57.632;11.962;2023-07-16T06:26:48;99717.09;;;20.95;74.79
13011;BME280;6786;57.632;11.962;2023-07-16T06:29:16;99750.81;;;21.14;74.83
13011;BME280;6786;57.632;11.962;2023-07-16T06:31:54;99760.53;;;21.15;75.07
13011;BME280;6786;57.632;11.962;2023-07-16T06:34:25;99764.25;;;21.14;75.13
13011;BME280;6786;57.632;11.962;2023-07-16T06:36:53;99758.03;;;21.13;74.96
13011;BME280;6786;57.632;11.962;2023-07-16T06:39:21;99758.03;;;21.13;75.00
13011;BME280;6786;57.632;11.962;2023-07-16T06:41:49;99768.44;;;21.16;75.41
13011;BME280;6786;57.632;11.962;2023-07-16T06:44:17;99767.41;;;21.17;75.27
13011;BME280;6786;57.632;11.962;2023-07-16T06:46:46;99771.78;;;21.18;74.89
13011;BME280;6786;57.632;11.962;2023-07-16T06:49:14;99765.41;;;21.11;75.05
13011;BME280;6786;57.632;11.962;2023-07-16T06:51:44;99788.91;;;21.25;74.88
13011;BME280;6786;57.632;11.962;2023-07-16T06:54:12;99778.84;;;21.19;74.99
13011;BME280;6786;57.632;11.962;2023-07-16T06:56:40;99779.13;;;21.32;74.53
13011;BME280;6786;57.632;11.962;2023-07-16T06:59:08;99784.50;;;21.32;74.61
13011;BME280;6786;57.632;11.962;2023-07-16T07:01:36;99787.03;;;21.34;74.75
13011;BME280;6786;57.632;11.962;2023-07-16T07:04:04;99781.50;;;21.27;74.38
13011;BME280;6786;57.632;11.962;2023-07-16T07:06:33;99784.66;;;21.31;74.61
13011;BME280;6786;57.632;11.962;2023-07-16T07:09:03;99781.16;;;21.30;74.74
13011;BME280;6786;57.632;11.962;2023-07-16T07:11:31;99781.16;;;21.30;74.70
13011;BME280;6786;57.632;11.962;2023-07-16T07:14:01;99776.78;;;21.29;74.53
13011;BME280;6786;57.632;11.962;2023-07-16T07:16:29;99771.44;;;21.21;74.98
13011;BME280;6786;57.632;11.962;2023-07-16T07:18:57;99772.78;;;21.25;75.14
13011;BME280;6786;57.632;11.962;2023-07-16T07:21:25;99788.91;;;21.25;74.85
13011;BME280;6786;57.632;11.962;2023-07-16T07:23:53;99718.78;;;20.80;75.09
13011;BME280;6786;57.632;11.962;2023-07-16T07:26:25;99783.53;;;21.25;75.24
13011;BME280;6786;57.632;11.962;2023-07-16T07:28:53;99786.88;;;21.27;75.13
13011;BME280;6786;57.632;11.962;2023-07-16T07:31:21;99727.16;;;20.93;75.04
13011;BME280;6786;57.632;11.962;2023-07-16T07:33:50;99792.22;;;21.35;75.09
13011;BME280;6786;57.632;11.962;2023-07-16T07:36:20;99800.78;;;21.39;75.34
13011;BME280;6786;57.632;11.962;2023-07-16T07:38:48;99783.81;;;21.38;75.25
13011;BME280;6786;57.632;11.962;2023-07-16T07:41:16;99782.00;;;21.31;75.13
13011;BME280;6786;57.632;11.962;2023-07-16T07:43:46;99775.47;;;21.25;75.22
13011;BME280;6786;57.632;11.962;2023-07-16T07:46:14;99809.38;;;21.34;74.82
13011;BME280;6786;57.632;11.962;2023-07-16T07:48:43;99783.53;;;21.25;75.32
13011;BME280;6786;57.632;11.962;2023-07-16T07:51:11;99804.34;;;21.31;75.20
13011;BME280;6786;57.632;11.962;2023-07-16T07:53:42;99797.63;;;21.27;75.41
13011;BME280;6786;57.632;11.962;2023-07-16T07:56:11;99810.06;;;21.28;75.36
13011;BME280;6786;57.632;11.962;2023-07-16T07:58:39;99806.34;;;21.29;75.56
13011;BME280;6786;57.632;11.962;2023-07-16T08:01:09;99809.03;;;21.29;75.21
13011;BME280;6786;57.632;11.962;2023-07-16T08:03:38;99812.91;;;21.27;75.44
13011;BME280;6786;57.632;11.962;2023-07-16T08:06:23;99812.91;;;21.27;75.65
13011;BME280;6786;57.632;11.962;2023-07-16T08:08:55;99816.63;;;21.26;75.53
13011;BME280;6786;57.632;11.962;2023-07-16T08:11:36;99800.66;;;21.24;75.71
13011;BME280;6786;57.632;11.962;2023-07-16T08:14:22;99806.88;;;21.25;75.32
13011;BME280;6786;57.632;11.962;2023-07-16T08:17:13;99814.75;;;21.26;75.18
13011;BME280;6786;57.632;11.962;2023-07-16T08:20:09;99768.13;;;21.03;75.10
13011;BME280;6786;57.632;11.962;2023-07-16T08:22:43;99794.28;;;21.25;75.46
13011;BME280;6786;57.632;11.962;2023-07-16T08:25:28;99804.16;;;21.25;75.23
13011;BME280;6786;57.632;11.962;2023-07-16T08:28:08;99800.84;;;21.23;75.29
13011;BME280;6786;57.632;11.962;2023-07-16T08:30:48;99807.03;;;21.23;75.36
13011;BME280;6786;57.632;11.962;2023-07-16T08:33:25;99810.75;;;21.22;75.25
13011;BME280;6786;57.632;11.962;2023-07-16T08:36:04;99811.41;;;21.24;75.08
13011;BME280;6786;57.632;11.962;2023-07-16T08:38:44;99805.38;;;21.22;74.71
13011;BME280;6786;57.632;11.962;2023-07-16T08:41:20;99797.47;;;21.21;75.01
13011;BME280;6786;57.632;11.962;2023-07-16T08:43:53;99812.75;;;21.20;74.95
13011;BME280;6786;57.632;11.962;2023-07-16T08:46:24;99832.56;;;21.19;75.00
13011;BME280;6786;57.632;11.962;2023-07-16T08:49:05;99821.84;;;21.19;75.03
13011;BME280;6786;57.632;11.962;2023-07-16T08:51:38;99808.75;;;21.16;74.94
13011;BME280;6786;57.632;11.962;2023-07-16T08:54:15;99824.50;;;21.19;75.15
13011;BME280;6786;57.632;11.962;2023-07-16T08:57:02;99832.56;;;21.19;75.12
13011;BME280;6786;57.632;11.962;2023-07-16T08:59:36;99828.88;;;21.20;74.75
13011;BME280;6786;57.632;11.962;2023-07-16T09:02:17;99820.16;;;21.18;74.75
13011;BME280;6786;57.632;11.962;2023-07-16T09:05:01;99826.19;;;21.20;74.94
13011;BME280;6786;57.632;11.962;2023-07-16T09:07:34;99836.28;;;21.18;74.80
13011;BME280;6786;57.632;11.962;2023-07-16T09:10:12;99826.69;;;21.16;74.95
13011;BME280;6786;57.632;11.962;2023-07-16T09:12:50;99846.88;;;21.20;74.50
13011;BME280;6786;57.632;11.962;2023-07-16T09:15:51;99854.06;;;21.19;74.74
13011;BME280;6786;57.632;11.962;2023-07-16T09:18:45;99838.81;;;21.20;74.64
13011;BME280;6786;57.632;11.962;2023-07-16T09:21:26;99854.06;;;21.19;74.75
13011;BME280;6786;57.632;11.962;2023-07-16T09:24:09;99855.75;;;21.20;74.73
13011;BME280;6786;57.632;11.962;2023-07-16T09:26:49;99850.38;;;21.20;74.28
13011;BME280;6786;57.632;11.962;2023-07-16T09:29:41;99842.66;;;21.17;74.37
13011;BME280;6786;57.632;11.962;2023-07-16T09:32:22;99854.41;;;21.16;74.41
13011;BME280;6786;57.632;11.962;2023-07-16T09:35:09;99859.78;;;21.16;74.54
13011;BME280;6786;57.632;11.962;2023-07-16T09:41:04;99859.78;;;21.16;74.62
13011;BME280;6786;57.632;11.962;2023-07-16T09:43:49;99857.28;;;21.15;74.40
13011;BME280;6786;57.632;11.962;2023-07-16T09:46:32;99869.69;;;21.16;74.27
13011;BME280;6786;57.632;11.962;2023-07-16T09:49:30;99855.44;;;21.15;74.35
13011;BME280;6786;57.632;11.962;2023-07-16T09:52:21;99867.84;;;21.16;74.16
13011;BME280;6786;57.632;11.962;2023-07-16T09:55:24;99876.25;;;21.13;74.39
13011;BME280;6786;57.632;11.962;2023-07-16T09:58:21;99870.88;;;21.13;74.33
13011;BME280;6786;57.632;11.962;2023-07-16T10:00:57;99870.88;;;21.13;74.31
13011;BME280;6786;57.632;11.962;2023-07-16T10:03:36;99871.91;;;21.12;74.20
13011;BME280;6786;57.632;11.962;2023-07-16T10:06:33;99866.53;;;21.12;74.14
13011;BME280;6786;57.632;11.962;2023-07-16T10:09:40;99863.84;;;21.12;73.97
13011;BME280;6786;57.632;11.962;2023-07-16T10:12:17;99880.78;;;21.13;73.90
13011;BME280;6786;57.632;11.962;2023-07-16T10:15:13;99906.81;;;21.12;73.57
13011;BME280;6786;57.632;11.962;2023-07-16T10:18:25;99877.28;;;21.12;73.48
13011;BME280;6786;57.632;11.962;2023-07-16T10:21:03;99875.72;;;21.10;73.92
13011;BME280;6786;57.632;11.962;2023-07-16T10:23:40;99881.63;;;21.13;73.77
13011;BME280;6786;57.632;11.962;2023-07-16T10:26:16;99873.91;;;21.10;73.71
13011;BME280;6786;57.632;11.962;2023-07-16T10:28:51;99864.66;;;21.13;73.56
13011;BME280;6786;57.632;11.962;2023-07-16T10:31:36;99874.41;;;21.14;73.96
13011;BME280;6786;57.632;11.962;2023-07-16T10:34:48;99878.25;;;21.11;73.86
13011;BME280;6786;57.632;11.962;2023-07-16T10:37:35;99881.63;;;21.13;73.88
13011;BME280;6786;57.632;11.962;2023-07-16T10:40:20;99887.00;;;21.13;73.95
13011;BME280;6786;57.632;11.962;2023-07-16T10:43:09;99868.19;;;21.13;73.64
13011;BME280;6786;57.632;11.962;2023-07-16T10:46:08;99876.25;;;21.13;74.00
13011;BME280;6786;57.632;11.962;2023-07-16T10:48:47;99878.25;;;21.11;74.03
13011;BME280;6786;57.632;11.962;2023-07-16T10:58:28;99914.19;;;21.10;73.96
13011;BME280;6786;57.632;11.962;2023-07-16T11:01:17;99908.84;;;21.10;73.63
13011;BME280;6786;57.632;11.962;2023-07-16T11:03:49;99907.16;;;21.09;73.87
13011;BME280;6786;57.632;11.962;2023-07-16T11:06:37;99914.19;;;21.10;73.98
13011;BME280;6786;57.632;11.962;2023-07-16T11:09:13;99913.34;;;21.10;73.67
13011;BME280;6786;57.632;11.962;2023-07-16T11:12:09;99912.53;;;21.09;73.80
13011;BME280;6786;57.632;11.962;2023-07-16T11:14:56;99923.28;;;21.09;74.21
13011;BME280;6786;57.632;11.962;2023-07-16T11:17:36;99921.25;;;21.11;73.90
13011;BME280;6786;57.632;11.962;2023-07-16T11:20:10;99917.56;;;21.12;73.91
13011;BME280;6786;57.632;11.962;2023-07-16T11:22:52;99936.38;;;21.12;73.89
13011;BME280;6786;57.632;11.962;2023-07-16T11:25:53;99912.19;;;21.12;73.93
13011;BME280;6786;57.632;11.962;2023-07-16T11:28:51;99919.06;;;21.07;73.92
13011;BME280;6786;57.632;11.962;2023-07-16T11:38:53;99925.81;;;21.11;73.81
13011;BME280;6786;57.632;11.962;2023-07-16T11:41:28;99923.28;;;21.09;73.75
13011;BME280;6786;57.632;11.962;2023-07-16T11:44:32;99924.25;;;21.08;73.96
13011;BME280;6786;57.632;11.962;2023-07-16T11:47:24;99912.53;;;21.09;73.78
13011;BME280;6786;57.632;11.962;2023-07-16T11:50:23;99909.16;;;21.07;73.82
13011;BME280;6786;57.632;11.962;2023-07-16T11:53:34;99912.53;;;21.09;74.35
13011;BME280;6786;57.632;11.962;2023-07-16T11:56:40;99915.88;;;21.11;74.31
13011;BME280;6786;57.632;11.962;2023-07-16T11:59:16;99903.47;;;21.10;74.14
13011;BME280;6786;57.632;11.962;2023-07-16T12:01:50;99918.06;;;21.08;74.04
13011;BME280;6786;57.632;11.962;2023-07-16T12:04:22;99917.56;;;21.12;74.38
13011;BME280;6786;57.632;11.962;2023-07-16T12:07:06;99948.13;;;21.11;74.31
13011;BME280;6786;57.632;11.962;2023-07-16T12:09:40;99858.75;;;20.61;74.25
13011;BME280;6786;57.632;11.962;2023-07-16T12:12:18;99942.75;;;21.11;74.32
13011;BME280;6786;57.632;11.962;2023-07-16T12:14:55;99932.00;;;21.11;73.94
13011;BME280;6786;57.632;11.962;2023-07-16T12:17:45;99936.56;;;21.11;74.12
13011;BME280;6786;57.632;11.962;2023-07-16T12:20:43;99930.31;;;21.10;73.80
13011;BME280;6786;57.632;11.962;2023-07-16T12:23:26;99939.22;;;21.11;74.08
13011;BME280;6786;57.632;11.962;2023-07-16T12:26:03;99942.09;;;21.09;74.00
13011;BME280;6786;57.632;11.962;2023-07-16T12:28:47;99937.38;;;21.11;73.87
13011;BME280;6786;57.632;11.962;2023-07-16T12:31:19;99949.81;;;21.12;74.22
13011;BME280;6786;57.632;11.962;2023-07-16T12:33:57;99960.56;;;21.12;74.13
13011;BME280;6786;57.632;11.962;2023-07-16T12:36:35;99951.81;;;21.10;73.93
13011;BME280;6786;57.632;11.962;2023-07-16T12:39:08;99964.25;;;21.11;74.17
13011;BME280;6786;57.632;11.962;2023-07-16T12:41:41;99960.56;;;21.12;74.38
13011;BME280;6786;57.632;11.962;2023-07-16T12:44:19;99969.63;;;21.11;74.43
13011;BME280;6786;57.632;11.962;2023-07-16T12:46:55;99962.22;;;21.13;74.41
13011;BME280;6786;57.632;11.962;2023-07-16T12:49:28;100000.88;;;21.12;74.16
13011;BME280;6786;57.632;11.962;2023-07-16T12:52:01;99966.75;;;21.13;74.46
13011;BME280;6786;57.632;11.962;2023-07-16T12:54:32;99966.75;;;21.13;74.27
13011;BME280;6786;57.632;11.962;2023-07-16T12:57:06;99960.56;;;21.12;74.09
13011;BME280;6786;57.632;11.962;2023-07-16T12:59:47;99972.97;;;21.13;74.41
13011;BME280;6786;57.632;11.962;2023-07-16T13:02:20;99954.19;;;21.13;74.32
13011;BME280;6786;57.632;11.962;2023-07-16T13:04:52;99962.41;;;21.12;74.63
13011;BME280;6786;57.632;11.962;2023-07-16T13:07:24;99963.91;;;21.14;74.37
13011;BME280;6786;57.632;11.962;2023-07-16T13:09:58;99975.00;;;21.11;74.58
13011;BME280;6786;57.632;11.962;2023-07-16T13:12:44;99974.00;;;21.12;74.25
13011;BME280;6786;57.632;11.962;2023-07-16T13:15:23;99896.34;;;20.61;74.52
13011;BME280;6786;57.632;11.962;2023-07-16T13:17:57;99978.69;;;21.10;74.23
13011;BME280;6786;57.632;11.962;2023-07-16T13:20:34;99983.53;;;21.07;74.19
13011;BME280;6786;57.632;11.962;2023-07-16T13:23:08;99978.69;;;21.10;74.31
13011;BME280;6786;57.632;11.962;2023-07-16T13:25:42;99977.84;;;21.10;74.59
13011;BME280;6786;57.632;11.962;2023-07-16T13:28:19;99983.22;;;21.10;74.46
13011;BME280;6786;57.632;11.962;2023-07-16T13:30:57;99982.38;;;21.09;74.33
13011;BME280;6786;57.632;11.962;2023-07-16T13:33:36;99989.44;;;21.10;74.38
13011;BME280;6786;57.632;11.962;2023-07-16T13:36:20;99969.94;;;21.08;74.46
13011;BME280;6786;57.632;11.962;2023-07-16T13:38:54;99989.78;;;21.07;74.31
13011;BME280;6786;57.632;11.962;2023-07-16T13:41:31;99971.97;;;21.06;74.41
13011;BME280;6786;57.632;11.962;2023-07-16T13:44:14;99979.03;;;21.07;74.49
13011;BME280;6786;57.632;11.962;2023-07-16T13:46:51;99968.28;;;21.07;74.47
13011;BME280;6786;57.632;11.962;2023-07-16T13:49:24;99967.41;;;21.07;74.44
13011;BME280;6786;57.632;11.962;2023-07-16T13:51:56;99965.59;;;21.07;74.53
13011;BME280;6786;57.632;11.962;2023-07-16T13:54:28;99973.66;;;21.07;74.39